Time;durP1;ratioP1;P1;durP2;ratioP2;P2;SDS_P1;SDS_P2;PMS_P1;PMS_P2;Temp;Humidity;BMP_temperature;BMP_pressure;BME280_temperature;BME280_humidity;BME280_pressure;Samples;Min_cycle;Max_cycle;Signal;HPM_P1;HPM_P2
2023/07/24 00:00:29;;;;;;;3.85;2.92;;;19.50;99.90;;;;;;5029693;28;20214;-79
2023/07/24 00:02:56;;;;;;;4.75;2.55;;;19.50;99.90;;;;;;5007150;28;20263;-79
2023/07/24 00:05:23;;;;;;;4.82;2.50;;;19.50;99.90;;;;;;5029851;28;20667;-79
2023/07/24 00:07:50;;;;;;;5.13;3.00;;;19.50;99.90;;;;;;5040030;28;20217;-78
2023/07/24 00:10:17;;;;;;;4.28;3.13;;;19.50;99.90;;;;;;5040163;28;20292;-79
2023/07/24 00:12:43;;;;;;;3.33;2.53;;;19.50;99.90;;;;;;5028692;28;20279;-78
2023/07/24 00:15:10;;;;;;;3.97;3.03;;;19.50;99.90;;;;;;5038054;28;20271;-79
2023/07/24 00:17:37;;;;;;;5.20;3.17;;;19.50;99.90;;;;;;5043967;28;20308;-81
2023/07/24 00:20:05;;;;;;;4.30;3.25;;;19.50;99.90;;;;;;5032821;28;20204;-79
2023/07/24 00:22:32;;;;;;;5.32;3.03;;;19.50;99.90;;;;;;5037485;28;20224;-80
2023/07/24 00:24:58;;;;;;;5.30;3.25;;;19.50;99.90;;;;;;5041017;28;20663;-79
2023/07/24 00:27:25;;;;;;;4.25;3.05;;;19.50;99.90;;;;;;5038370;28;20326;-79
2023/07/24 00:29:52;;;;;;;4.03;2.65;;;19.50;99.90;;;;;;5043059;28;20754;-79
2023/07/24 00:32:19;;;;;;;4.07;3.38;;;19.40;99.90;;;;;;5029967;28;20295;-79
2023/07/24 00:34:45;;;;;;;4.15;2.97;;;19.40;99.90;;;;;;5039929;28;20213;-81
2023/07/24 00:37:12;;;;;;;3.72;2.80;;;19.30;99.90;;;;;;5019495;28;20202;-79
2023/07/24 00:39:39;;;;;;;3.28;2.72;;;19.40;99.90;;;;;;5018503;28;20210;-79
2023/07/24 00:42:06;;;;;;;4.28;3.17;;;19.30;99.90;;;;;;5044914;28;20259;-81
2023/07/24 00:44:33;;;;;;;5.20;2.78;;;19.40;99.90;;;;;;5029135;28;20676;-78
2023/07/24 00:47:00;;;;;;;4.00;2.70;;;19.30;99.90;;;;;;5037478;28;20197;-78
2023/07/24 00:49:27;;;;;;;4.28;2.75;;;19.30;99.90;;;;;;5037591;28;20303;-79
2023/07/24 00:51:53;;;;;;;4.75;2.70;;;19.30;99.90;;;;;;5010758;28;20308;-78
2023/07/24 00:54:22;;;;;;;4.40;2.97;;;19.20;99.90;;;;;;5029215;28;20613;-79
2023/07/24 00:56:48;;;;;;;4.57;3.40;;;19.20;99.90;;;;;;5047065;28;20210;-79
2023/07/24 00:59:15;;;;;;;5.38;3.20;;;19.10;99.90;;;;;;5028314;28;20600;-77
2023/07/24 01:01:44;;;;;;;4.35;3.40;;;19.10;99.90;;;;;;5040570;28;20278;-79
2023/07/24 01:04:10;;;;;;;3.75;2.92;;;19.00;99.90;;;;;;5063894;28;20208;-78
2023/07/24 01:06:37;;;;;;;3.45;2.95;;;19.10;99.90;;;;;;5052282;28;20197;-78
2023/07/24 01:09:04;;;;;;;3.83;3.00;;;19.10;99.90;;;;;;5061903;28;20225;-78
2023/07/24 01:11:44;;;;;;;4.45;3.28;;;19.10;99.90;;;;;;5038200;28;20583;-78
2023/07/24 01:14:26;;;;;;;4.43;3.25;;;19.20;99.90;;;;;;5030504;28;20201;-78
2023/07/24 01:16:55;;;;;;;5.38;3.70;;;19.20;99.90;;;;;;5063741;28;20613;-79
2023/07/24 01:19:35;;;;;;;3.92;3.38;;;19.30;99.90;;;;;;5057002;28;20225;-78
2023/07/24 01:22:29;;;;;;;3.75;3.10;;;19.30;99.90;;;;;;5035245;28;20304;-78
2023/07/24 01:25:22;;;;;;;5.97;3.25;;;19.40;99.90;;;;;;5042832;28;20258;-79
2023/07/24 01:27:49;;;;;;;4.93;3.47;;;19.40;99.90;;;;;;5052872;28;20205;-78
2023/07/24 01:30:18;;;;;;;5.20;3.78;;;19.30;99.90;;;;;;5049726;28;20197;-79
2023/07/24 01:32:46;;;;;;;3.75;3.42;;;19.20;99.90;;;;;;5058457;28;20207;-78
2023/07/24 01:35:13;;;;;;;5.05;3.88;;;19.20;99.90;;;;;;5061249;28;20280;-78
2023/07/24 01:37:41;;;;;;;5.03;3.90;;;19.20;99.90;;;;;;5061415;28;20203;-78
2023/07/24 01:40:09;;;;;;;5.95;3.83;;;19.20;99.90;;;;;;5049133;28;20209;-78
2023/07/24 01:42:36;;;;;;;7.60;4.38;;;19.10;99.90;;;;;;5044761;28;20202;-78
2023/07/24 01:45:04;;;;;;;5.35;3.97;;;19.00;99.90;;;;;;5060656;28;20651;-79
2023/07/24 01:47:31;;;;;;;5.43;4.00;;;19.00;99.90;;;;;;5058349;28;20632;-78
2023/07/24 01:49:58;;;;;;;5.55;4.38;;;19.10;99.90;;;;;;5032533;28;20631;-79
2023/07/24 01:52:26;;;;;;;6.30;4.57;;;19.00;99.90;;;;;;5061529;28;20274;-77
2023/07/24 01:54:52;;;;;;;5.18;4.07;;;19.00;99.90;;;;;;5046528;28;20201;-78
2023/07/24 01:57:19;;;;;;;6.00;4.15;;;19.00;99.90;;;;;;5051955;28;20205;-77
2023/07/24 01:59:46;;;;;;;6.47;4.30;;;19.10;99.90;;;;;;5051545;28;20271;-79
2023/07/24 02:02:13;;;;;;;5.18;4.18;;;19.10;99.90;;;;;;5059343;28;20362;-78
2023/07/24 02:04:39;;;;;;;4.85;4.18;;;19.10;99.90;;;;;;5061894;28;20269;-78
2023/07/24 02:07:06;;;;;;;5.20;4.05;;;19.10;99.90;;;;;;5061617;28;20196;-79
2023/07/24 02:09:33;;;;;;;5.60;4.45;;;19.10;99.90;;;;;;5064360;28;20227;-77
2023/07/24 02:12:01;;;;;;;5.13;4.30;;;19.10;99.90;;;;;;5068995;28;20224;-79
2023/07/24 02:14:28;;;;;;;5.50;4.18;;;19.10;99.90;;;;;;5048062;28;20666;-77
2023/07/24 02:16:55;;;;;;;5.88;4.82;;;19.10;99.90;;;;;;5051112;28;20209;-79
2023/07/24 02:19:22;;;;;;;5.07;3.95;;;19.10;99.90;;;;;;5051348;28;20224;-78
2023/07/24 02:21:48;;;;;;;4.45;3.83;;;19.10;99.90;;;;;;5060318;28;20237;-78
2023/07/24 02:24:15;;;;;;;6.65;4.20;;;19.00;99.90;;;;;;5052711;28;20209;-78
2023/07/24 02:26:42;;;;;;;5.95;4.78;;;19.00;99.90;;;;;;5055059;28;20212;-77
2023/07/24 02:29:09;;;;;;;5.60;4.45;;;18.90;99.90;;;;;;5060151;28;20208;-78
2023/07/24 02:31:35;;;;;;;5.35;4.00;;;18.90;99.90;;;;;;5043802;28;20232;-78
2023/07/24 02:34:02;;;;;;;6.53;4.65;;;18.80;99.90;;;;;;5052452;28;20204;-79
2023/07/24 02:36:29;;;;;;;5.75;3.92;;;18.80;99.90;;;;;;5034639;28;20196;-78
2023/07/24 02:38:56;;;;;;;5.07;4.05;;;18.80;99.90;;;;;;5039533;28;20304;-78
2023/07/24 02:41:23;;;;;;;5.30;4.22;;;18.80;99.90;;;;;;5061789;28;20246;-79
2023/07/24 02:43:50;;;;;;;6.05;4.50;;;18.80;99.90;;;;;;5055765;28;20216;-78
2023/07/24 02:46:17;;;;;;;5.53;4.60;;;18.80;99.90;;;;;;5066080;28;20601;-79
2023/07/24 02:48:43;;;;;;;5.30;4.18;;;18.80;99.90;;;;;;5054414;28;20220;-79
2023/07/24 02:51:10;;;;;;;5.80;4.68;;;18.80;99.90;;;;;;5058646;28;20251;-78
2023/07/24 02:53:37;;;;;;;5.25;4.18;;;18.80;99.90;;;;;;5049557;28;20209;-79
2023/07/24 02:56:04;;;;;;;6.32;4.57;;;18.90;99.90;;;;;;5051667;28;20217;-79
2023/07/24 02:58:30;;;;;;;6.40;4.90;;;18.80;99.90;;;;;;5068560;28;20231;-78
2023/07/24 03:01:08;;;;;;;7.95;5.20;;;18.80;99.90;;;;;;5042382;28;20791;-79
2023/07/24 03:03:35;;;;;;;6.03;4.53;;;18.80;99.90;;;;;;5043769;28;20316;-78
2023/07/24 03:06:02;;;;;;;6.75;4.72;;;18.80;99.90;;;;;;5056379;28;20197;-78
2023/07/24 03:08:28;;;;;;;5.13;4.28;;;18.80;99.90;;;;;;5047130;28;20280;-80
2023/07/24 03:10:55;;;;;;;5.78;4.68;;;18.80;99.90;;;;;;5043171;28;20488;-78
2023/07/24 03:13:22;;;;;;;6.20;4.75;;;18.70;99.90;;;;;;5049544;28;20259;-77
2023/07/24 03:15:57;;;;;;;5.95;4.47;;;18.80;99.90;;;;;;5044712;28;20484;-79
2023/07/24 03:18:24;;;;;;;5.15;4.30;;;18.80;99.90;;;;;;5046597;28;20400;-79
2023/07/24 03:20:51;;;;;;;6.50;4.72;;;18.80;99.90;;;;;;5049375;28;20308;-78
2023/07/24 03:23:18;;;;;;;6.15;4.38;;;18.70;99.90;;;;;;5060961;28;20201;-79
2023/07/24 03:25:45;;;;;;;6.03;4.63;;;18.80;99.90;;;;;;5035941;28;20549;-79
2023/07/24 03:28:12;;;;;;;5.65;4.30;;;18.80;99.90;;;;;;5046040;28;20219;-78
2023/07/24 03:30:38;;;;;;;6.72;5.10;;;18.90;99.90;;;;;;5050291;28;20201;-78
2023/07/24 03:33:06;;;;;;;8.00;4.95;;;18.90;99.90;;;;;;5056576;28;20212;-79
2023/07/24 03:35:33;;;;;;;7.28;5.13;;;18.90;99.90;;;;;;5062190;28;20219;-78
2023/07/24 03:38:00;;;;;;;5.35;4.15;;;18.90;99.90;;;;;;5059245;28;20342;-79
2023/07/24 03:40:27;;;;;;;5.03;4.00;;;18.90;99.90;;;;;;5053682;28;20204;-79
2023/07/24 03:42:53;;;;;;;6.38;4.50;;;18.90;99.90;;;;;;5062530;28;20216;-78
2023/07/24 03:45:20;;;;;;;8.27;4.80;;;18.90;99.90;;;;;;5059543;28;20200;-78
2023/07/24 03:47:47;;;;;;;5.97;4.65;;;19.00;99.90;;;;;;5052783;28;20224;-79
2023/07/24 03:50:14;;;;;;;6.55;4.47;;;19.00;99.90;;;;;;5059301;28;20224;-77
2023/07/24 03:52:41;;;;;;;6.93;4.72;;;19.00;99.90;;;;;;5051117;28;20208;-77
2023/07/24 03:55:09;;;;;;;8.07;4.63;;;18.90;99.90;;;;;;5034098;28;20212;-79
2023/07/24 03:57:35;;;;;;;7.43;4.70;;;18.90;99.90;;;;;;5048009;28;20300;-78
2023/07/24 04:00:03;;;;;;;6.93;4.57;;;18.90;99.90;;;;;;5029648;28;20233;-78
2023/07/24 04:02:30;;;;;;;6.85;4.85;;;18.90;99.90;;;;;;5038332;28;20221;-77
2023/07/24 04:04:57;;;;;;;6.45;4.60;;;18.90;99.90;;;;;;5028823;28;20201;-77
2023/07/24 04:07:23;;;;;;;6.50;4.93;;;18.80;99.90;;;;;;5050059;28;20189;-78
2023/07/24 04:09:50;;;;;;;6.50;4.80;;;18.90;99.90;;;;;;5051064;28;20185;-79
2023/07/24 04:12:17;;;;;;;6.55;4.68;;;18.80;99.90;;;;;;5063403;28;20228;-80
2023/07/24 04:14:44;;;;;;;6.03;4.40;;;18.90;99.90;;;;;;5052490;28;20234;-78
2023/07/24 04:17:11;;;;;;;6.72;5.10;;;18.80;99.90;;;;;;5046492;28;20262;-78
2023/07/24 04:19:37;;;;;;;7.88;5.30;;;18.80;99.90;;;;;;5054494;28;20298;-80
2023/07/24 04:22:04;;;;;;;7.90;5.20;;;18.80;99.90;;;;;;5051916;28;20197;-78
2023/07/24 04:24:31;;;;;;;7.63;4.97;;;18.80;99.90;;;;;;5050756;28;20607;-79
2023/07/24 04:26:58;;;;;;;7.03;5.30;;;18.80;99.90;;;;;;5055906;28;20217;-78
2023/07/24 04:29:25;;;;;;;6.40;4.93;;;18.80;99.90;;;;;;5059084;28;20664;-78
2023/07/24 04:31:52;;;;;;;7.53;5.20;;;18.80;99.90;;;;;;5051543;28;20281;-79
2023/07/24 04:34:19;;;;;;;7.38;4.50;;;18.80;99.90;;;;;;5065258;28;20545;-79
2023/07/24 04:36:46;;;;;;;7.57;5.07;;;18.80;99.90;;;;;;5035551;28;20228;-79
2023/07/24 04:39:13;;;;;;;6.68;4.45;;;18.70;99.90;;;;;;5058466;28;20217;-78
2023/07/24 04:41:39;;;;;;;7.60;5.25;;;18.80;99.90;;;;;;5032426;28;20304;-81
2023/07/24 04:44:06;;;;;;;7.63;4.88;;;18.80;99.90;;;;;;5063004;28;20208;-80
2023/07/24 04:46:33;;;;;;;6.53;4.47;;;18.80;99.90;;;;;;5052839;28;20269;-77
2023/07/24 04:49:00;;;;;;;8.55;5.75;;;18.90;99.90;;;;;;5059563;28;20673;-80
2023/07/24 04:51:27;;;;;;;9.10;5.70;;;18.80;99.90;;;;;;5044117;28;20201;-78
2023/07/24 04:53:55;;;;;;;7.25;5.50;;;18.70;99.90;;;;;;5028857;28;20748;-79
2023/07/24 04:56:22;;;;;;;8.05;5.45;;;18.70;99.90;;;;;;5055103;28;20189;-77
2023/07/24 04:58:49;;;;;;;8.80;5.50;;;18.80;99.90;;;;;;5059623;28;20213;-79
2023/07/24 05:01:16;;;;;;;6.53;5.00;;;18.70;99.90;;;;;;5044919;28;20778;-79
2023/07/24 05:03:42;;;;;;;7.22;5.28;;;18.70;99.90;;;;;;5045406;28;20201;-77
2023/07/24 05:06:09;;;;;;;7.72;5.60;;;18.70;99.90;;;;;;5063526;28;20200;-80
2023/07/24 05:08:36;;;;;;;7.75;5.78;;;18.80;99.90;;;;;;5050958;28;20203;-77
2023/07/24 05:11:03;;;;;;;6.70;5.10;;;18.80;99.90;;;;;;5030339;28;20201;-79
2023/07/24 05:13:30;;;;;;;7.35;5.43;;;18.80;99.90;;;;;;5045741;28;20212;-77
2023/07/24 05:15:56;;;;;;;8.55;5.32;;;18.80;99.90;;;;;;5045825;28;20205;-78
2023/07/24 05:18:23;;;;;;;8.82;6.15;;;18.80;99.90;;;;;;5045694;28;20657;-78
2023/07/24 05:20:51;;;;;;;7.07;4.97;;;18.80;99.90;;;;;;5046557;28;20658;-78
2023/07/24 05:23:18;;;;;;;8.35;5.15;;;18.80;99.90;;;;;;5066371;28;20292;-81
2023/07/24 05:25:46;;;;;;;9.43;6.10;;;18.90;99.90;;;;;;5051199;28;20193;-78
2023/07/24 05:28:13;;;;;;;8.00;5.70;;;18.80;99.90;;;;;;5045901;28;20217;-79
2023/07/24 05:30:39;;;;;;;6.75;4.80;;;18.80;99.90;;;;;;5027853;28;20231;-78
2023/07/24 05:33:06;;;;;;;9.68;6.43;;;18.90;99.90;;;;;;5045639;28;20580;-78
2023/07/24 05:35:33;;;;;;;10.48;5.88;;;18.80;99.90;;;;;;5027268;28;20541;-79
2023/07/24 05:38:01;;;;;;;8.32;5.68;;;18.70;99.90;;;;;;5045247;28;20194;-79
2023/07/24 05:40:28;;;;;;;8.77;5.63;;;18.70;99.90;;;;;;5026774;28;20720;-80
2023/07/24 05:42:55;;;;;;;9.00;5.80;;;18.80;99.90;;;;;;5026071;28;20213;-78
2023/07/24 05:45:22;;;;;;;9.48;6.10;;;18.80;99.90;;;;;;5043836;28;20286;-79
2023/07/24 05:47:48;;;;;;;8.70;5.75;;;18.80;99.90;;;;;;5044517;28;20670;-78
2023/07/24 05:50:15;;;;;;;7.90;5.82;;;18.80;99.90;;;;;;5045565;28;20208;-78
2023/07/24 05:52:42;;;;;;;7.72;5.43;;;18.90;99.90;;;;;;5026640;28;20205;-78
2023/07/24 05:55:09;;;;;;;8.60;5.88;;;19.30;99.90;;;;;;5045462;28;20458;-79
2023/07/24 05:57:37;;;;;;;8.10;5.72;;;19.50;99.90;;;;;;5045565;28;20703;-78
2023/07/24 06:00:05;;;;;;;7.88;5.45;;;19.60;99.90;;;;;;5045524;28;20493;-80
2023/07/24 06:02:32;;;;;;;9.18;5.60;;;19.70;99.90;;;;;;5045175;28;20567;-78
2023/07/24 06:04:58;;;;;;;7.30;5.13;;;19.80;99.90;;;;;;5046538;28;20235;-80
2023/07/24 06:07:25;;;;;;;10.52;5.97;;;19.80;99.90;;;;;;5046076;28;20642;-77
2023/07/24 06:09:52;;;;;;;9.77;6.00;;;19.80;99.90;;;;;;5045863;28;20772;-78
2023/07/24 06:12:19;;;;;;;11.45;6.53;;;19.80;99.90;;;;;;5046395;28;20656;-80
2023/07/24 06:14:46;;;;;;;8.77;6.40;;;19.80;99.90;;;;;;5028230;28;20219;-78
2023/07/24 06:17:12;;;;;;;13.43;7.03;;;19.70;99.90;;;;;;5027711;28;20959;-79
2023/07/24 06:19:39;;;;;;;9.15;5.88;;;19.60;99.90;;;;;;5046070;28;20282;-78
2023/07/24 06:22:07;;;;;;;8.68;6.43;;;19.70;99.90;;;;;;5027703;28;20216;-79
2023/07/24 06:24:33;;;;;;;10.07;6.90;;;19.60;99.90;;;;;;5045869;28;20315;-78
2023/07/24 06:27:00;;;;;;;10.88;6.78;;;19.60;99.90;;;;;;5045323;28;20646;-80
2023/07/24 06:29:28;;;;;;;12.13;6.90;;;19.50;99.90;;;;;;5048124;28;20216;-78
2023/07/24 06:31:54;;;;;;;9.98;6.75;;;19.50;99.90;;;;;;5031080;28;20848;-79
2023/07/24 06:34:21;;;;;;;11.75;6.88;;;19.50;99.90;;;;;;5048654;28;20201;-77
2023/07/24 06:36:48;;;;;;;10.63;7.10;;;19.70;99.90;;;;;;5047877;28;20212;-78
2023/07/24 06:39:15;;;;;;;10.25;6.60;;;19.80;99.90;;;;;;5048646;28;20282;-78
2023/07/24 06:41:42;;;;;;;9.25;5.80;;;19.90;99.90;;;;;;5025321;28;20272;-78
2023/07/24 06:44:09;;;;;;;9.27;5.72;;;20.00;99.90;;;;;;5041322;28;20259;-77
2023/07/24 06:46:36;;;;;;;9.40;5.70;;;20.10;99.90;;;;;;5049291;28;20221;-78
2023/07/24 06:49:03;;;;;;;10.05;6.22;;;20.30;99.90;;;;;;5047121;28;20209;-79
2023/07/24 06:51:29;;;;;;;8.40;5.80;;;20.20;99.90;;;;;;5047128;28;20228;-79
2023/07/24 06:53:56;;;;;;;7.57;4.85;;;20.40;99.90;;;;;;5046086;28;20494;-77
2023/07/24 06:56:23;;;;;;;7.72;5.30;;;20.40;99.90;;;;;;5048920;28;20185;-76
2023/07/24 06:58:50;;;;;;;9.02;5.28;;;20.50;99.90;;;;;;5047834;28;20198;-77
2023/07/24 07:01:16;;;;;;;8.20;5.55;;;20.70;99.90;;;;;;5048047;28;20295;-78
2023/07/24 07:03:43;;;;;;;8.73;4.95;;;20.80;99.90;;;;;;5049376;28;20258;-79
2023/07/24 07:06:11;;;;;;;8.13;4.90;;;21.10;99.90;;;;;;5048804;28;20199;-78
2023/07/24 07:08:53;;;;;;;5.95;4.03;;;21.50;99.90;;;;;;5047764;28;20436;-77
2023/07/24 07:11:20;;;;;;;6.40;3.78;;;22.20;99.90;;;;;;5048488;28;20205;-77
2023/07/24 07:13:47;;;;;;;5.38;3.67;;;22.80;99.90;;;;;;5048580;28;20209;-78
2023/07/24 07:16:16;;;;;;;6.90;4.38;;;23.40;99.90;;;;;;5029584;28;20692;-75
2023/07/24 07:18:43;;;;;;;6.38;4.00;;;23.70;99.90;;;;;;5047096;28;20259;-78
2023/07/24 07:21:10;;;;;;;5.85;3.95;;;23.80;99.90;;;;;;5046634;28;20217;-77
2023/07/24 07:23:37;;;;;;;8.93;4.82;;;23.90;99.90;;;;;;5045629;28;20227;-77
2023/07/24 07:26:04;;;;;;;7.10;4.00;;;24.10;99.90;;;;;;5028850;28;20259;-77
2023/07/24 07:28:30;;;;;;;5.85;3.90;;;23.90;99.90;;;;;;5041082;28;20202;-77
2023/07/24 07:30:57;;;;;;;6.40;4.50;;;23.70;99.90;;;;;;5045064;28;20205;-76
2023/07/24 07:33:24;;;;;;;6.22;4.07;;;23.60;99.90;;;;;;5013641;28;20247;-79
2023/07/24 07:35:51;;;;;;;7.10;4.57;;;23.50;99.90;;;;;;5046528;28;20201;-79
2023/07/24 07:38:18;;;;;;;7.97;4.00;;;23.40;99.90;;;;;;5059101;28;20246;-78
2023/07/24 07:40:45;;;;;;;5.75;3.97;;;23.50;99.90;;;;;;5036433;28;20460;-77
2023/07/24 07:43:12;;;;;;;9.05;4.45;;;23.90;99.90;;;;;;5064603;28;20212;-77
2023/07/24 07:45:39;;;;;;;5.72;3.83;;;24.20;99.90;;;;;;5047835;28;20197;-78
2023/07/24 07:48:06;;;;;;;6.45;4.45;;;24.80;99.90;;;;;;5067337;28;20623;-78
2023/07/24 07:50:33;;;;;;;6.78;4.30;;;25.00;99.90;;;;;;5052821;28;20215;-78
2023/07/24 07:52:59;;;;;;;8.05;4.03;;;25.40;99.90;;;;;;5033426;28;20216;-78
2023/07/24 07:55:26;;;;;;;7.07;4.70;;;25.90;99.90;;;;;;5063058;28;20247;-78
2023/07/24 07:57:53;;;;;;;6.40;4.32;;;26.00;99.90;;;;;;5055594;28;20212;-77
2023/07/24 08:00:20;;;;;;;7.30;4.20;;;26.10;99.90;;;;;;5054774;28;20275;-78
2023/07/24 08:02:47;;;;;;;6.50;3.92;;;26.80;99.90;;;;;;5031099;28;20221;-79
2023/07/24 08:05:15;;;;;;;7.25;4.30;;;26.60;99.90;;;;;;5063984;28;20222;-78
2023/07/24 08:07:46;;;;;;;8.82;4.63;;;26.30;99.90;;;;;;5046691;28;20221;-80
2023/07/24 08:10:15;;;;;;;9.68;4.88;;;25.90;99.90;;;;;;5051098;28;20221;-78
2023/07/24 08:12:43;;;;;;;7.40;4.05;;;25.50;99.90;;;;;;5047375;28;20279;-78
2023/07/24 08:15:10;;;;;;;5.75;3.88;;;25.00;99.90;;;;;;5047754;28;20197;-77
2023/07/24 08:17:37;;;;;;;8.15;4.18;;;24.70;99.90;;;;;;5055274;28;20193;-77
2023/07/24 08:20:06;;;;;;;7.40;4.40;;;24.30;99.90;;;;;;5067323;28;20274;-78
2023/07/24 08:22:33;;;;;;;6.63;4.30;;;24.30;99.90;;;;;;5063105;28;20565;-79
2023/07/24 08:25:00;;;;;;;7.25;3.92;;;24.20;99.90;;;;;;5050076;28;20247;-79
2023/07/24 08:27:27;;;;;;;7.88;4.45;;;24.00;99.90;;;;;;5046758;28;20217;-78
2023/07/24 08:29:54;;;;;;;7.50;4.57;;;24.00;99.90;;;;;;5049926;28;20670;-78
2023/07/24 08:32:21;;;;;;;6.43;4.38;;;23.80;99.90;;;;;;5053978;28;20197;-79
2023/07/24 08:34:48;;;;;;;8.63;5.20;;;23.50;99.90;;;;;;5054841;28;20208;-79
2023/07/24 08:37:14;;;;;;;6.18;4.40;;;23.30;99.90;;;;;;5062464;28;20263;-77
2023/07/24 08:39:41;;;;;;;5.82;4.47;;;23.30;99.90;;;;;;5051821;28;20223;-79
2023/07/24 08:42:12;;;;;;;7.85;4.55;;;23.30;99.90;;;;;;5056107;28;20212;-78
2023/07/24 08:44:39;;;;;;;8.18;4.60;;;23.30;99.90;;;;;;5044723;28;20227;-80
2023/07/24 08:47:10;;;;;;;5.72;4.10;;;23.20;99.90;;;;;;5044451;28;20502;-77
2023/07/24 08:49:40;;;;;;;6.82;4.82;;;23.20;99.90;;;;;;5061644;28;20236;-79
2023/07/24 08:52:08;;;;;;;6.65;3.65;;;23.10;99.90;;;;;;5047151;28;20295;-78
2023/07/24 08:54:40;;;;;;;6.15;4.60;;;23.10;99.90;;;;;;5059822;28;21048;-79
2023/07/24 08:57:07;;;;;;;6.45;4.45;;;22.90;99.90;;;;;;5048014;28;20241;-81
2023/07/24 08:59:35;;;;;;;5.40;4.07;;;23.10;99.90;;;;;;5047645;28;20196;-81
2023/07/24 09:02:02;;;;;;;6.63;4.10;;;23.00;99.90;;;;;;5028584;28;20228;-80
2023/07/24 09:04:29;;;;;;;6.05;4.03;;;23.00;99.90;;;;;;5047135;28;20246;-80
2023/07/24 09:06:57;;;;;;;6.97;4.43;;;23.50;99.90;;;;;;5061537;28;20197;-80
2023/07/24 09:09:30;;;;;;;8.82;4.50;;;24.20;99.90;;;;;;5049361;28;20197;-80
2023/07/24 09:11:59;;;;;;;6.07;4.25;;;24.50;99.90;;;;;;5055282;28;20217;-79
2023/07/24 09:14:27;;;;;;;5.40;4.40;;;24.50;99.90;;;;;;5053878;28;20658;-80
2023/07/24 09:17:09;;;;;;;6.35;4.50;;;24.50;99.90;;;;;;5046682;28;20566;-79
2023/07/24 09:19:37;;;;;;;6.60;3.92;;;24.70;99.90;;;;;;5032678;28;20275;-80
2023/07/24 09:22:12;;;;;;;5.30;4.10;;;24.90;99.90;;;;;;5044630;28;20200;-80
2023/07/24 09:24:57;;;;;;;5.57;4.15;;;25.10;99.90;;;;;;5050717;28;20212;-79
2023/07/24 09:27:27;;;;;;;6.10;4.18;;;25.10;99.90;;;;;;5062099;28;20220;-79
2023/07/24 09:29:55;;;;;;;5.60;4.13;;;24.90;99.90;;;;;;5032507;28;20200;-80
2023/07/24 09:32:26;;;;;;;5.53;4.07;;;24.70;99.90;;;;;;5055423;28;20205;-79
2023/07/24 09:34:54;;;;;;;8.57;5.20;;;24.20;99.90;;;;;;5060541;28;20373;-78
2023/07/24 09:37:30;;;;;;;6.93;4.50;;;23.90;99.90;;;;;;5032198;28;20303;-80
2023/07/24 09:39:57;;;;;;;6.85;4.75;;;23.70;99.90;;;;;;5040744;28;20224;-79
2023/07/24 09:42:30;;;;;;;6.30;4.82;;;23.70;99.90;;;;;;5053997;28;20855;-78
2023/07/24 09:44:57;;;;;;;7.78;4.95;;;24.00;99.90;;;;;;5044817;28;20314;-79
2023/07/24 09:47:25;;;;;;;6.97;4.78;;;24.20;99.90;;;;;;5045809;28;20201;-81
2023/07/24 09:50:13;;;;;;;7.70;4.35;;;24.20;99.90;;;;;;5042950;28;20204;-80
2023/07/24 09:52:43;;;;;;;8.30;4.90;;;24.30;99.90;;;;;;5044085;28;20216;-79
2023/07/24 09:55:21;;;;;;;7.18;4.22;;;24.70;99.90;;;;;;5044746;28;20200;-78
2023/07/24 09:57:49;;;;;;;8.90;4.55;;;25.00;99.90;;;;;;5044716;28;20532;-78
2023/07/24 10:00:16;;;;;;;6.05;3.97;;;25.10;99.90;;;;;;5045770;28;20282;-79
2023/07/24 10:02:44;;;;;;;7.07;4.20;;;25.30;99.90;;;;;;5045175;28;20716;-81
2023/07/24 10:05:12;;;;;;;6.70;3.85;;;25.40;99.90;;;;;;5047999;28;20591;-79
2023/07/24 10:07:39;;;;;;;3.80;3.33;;;25.30;99.90;;;;;;5050216;28;20225;-80
2023/07/24 10:10:07;;;;;;;4.53;3.55;;;24.90;99.90;;;;;;5049943;28;20197;-80
2023/07/24 10:12:34;;;;;;;6.85;4.15;;;24.90;99.90;;;;;;5031845;28;20216;-79
2023/07/24 10:15:01;;;;;;;6.15;4.03;;;24.90;99.90;;;;;;5015328;28;20220;-79
2023/07/24 10:17:41;;;;;;;5.72;4.47;;;24.80;99.90;;;;;;5030977;28;20255;-79
2023/07/24 10:20:10;;;;;;;4.88;3.92;;;24.50;99.90;;;;;;5032170;28;20635;-79
2023/07/24 10:22:41;;;;;;;6.38;4.28;;;24.40;99.90;;;;;;5057488;28;20609;-79
2023/07/24 10:25:09;;;;;;;6.78;4.50;;;24.20;99.90;;;;;;5023957;28;20304;-79
2023/07/24 10:27:46;;;;;;;8.15;4.72;;;24.00;99.90;;;;;;5048100;28;20267;-80
2023/07/24 10:30:15;;;;;;;6.15;4.60;;;23.80;99.90;;;;;;5048683;28;20293;-80
2023/07/24 10:33:18;;;;;;;7.15;4.18;;;23.80;99.90;;;;;;5047055;28;20280;-81
2023/07/24 10:35:55;;;;;;;7.15;4.95;;;23.70;99.90;;;;;;5057295;28;20217;-79
2023/07/24 10:38:36;;;;;;;7.45;5.10;;;23.60;99.90;;;;;;5048616;28;20205;-80
2023/07/24 10:41:08;;;;;;;7.07;4.63;;;23.50;99.90;;;;;;5047292;28;20239;-79
2023/07/24 10:43:46;;;;;;;6.88;4.82;;;23.50;99.90;;;;;;5042670;28;20200;-80
2023/07/24 10:46:16;;;;;;;7.82;4.57;;;23.70;99.90;;;;;;5048662;28;20209;-80
2023/07/24 10:48:45;;;;;;;6.57;4.45;;;23.90;99.90;;;;;;5048857;28;20221;-79
2023/07/24 10:51:14;;;;;;;5.68;4.03;;;23.80;99.90;;;;;;5044321;28;20223;-79
2023/07/24 10:53:47;;;;;;;5.45;4.40;;;23.70;99.90;;;;;;5041259;28;20639;-78
2023/07/24 10:56:15;;;;;;;7.28;4.22;;;23.90;99.90;;;;;;5048685;28;20219;-80
2023/07/24 10:58:42;;;;;;;6.53;4.78;;;24.00;99.90;;;;;;5047845;28;20201;-79
2023/07/24 11:01:10;;;;;;;7.03;4.80;;;24.00;99.90;;;;;;5047805;28;20221;-80
2023/07/24 11:03:41;;;;;;;7.65;4.18;;;23.80;99.90;;;;;;5054206;28;20201;-83
2023/07/24 11:06:17;;;;;;;5.82;4.70;;;23.80;99.90;;;;;;5047533;28;20201;-82
2023/07/24 11:08:58;;;;;;;7.43;4.55;;;23.90;99.90;;;;;;5047798;28;20631;-80
2023/07/24 11:11:29;;;;;;;6.88;4.20;;;23.80;99.90;;;;;;5045722;28;20277;-79
2023/07/24 11:13:57;;;;;;;7.35;4.55;;;23.60;99.90;;;;;;5049546;28;20645;-79
2023/07/24 11:16:24;;;;;;;6.70;4.63;;;23.70;99.90;;;;;;5060947;28;20640;-79
2023/07/24 11:18:52;;;;;;;9.70;4.88;;;23.50;99.90;;;;;;5047818;28;20223;-79
2023/07/24 11:21:23;;;;;;;8.75;4.75;;;23.40;99.90;;;;;;5049513;28;20282;-78
2023/07/24 11:23:52;;;;;;;4.85;4.35;;;23.50;99.90;;;;;;5050115;28;20505;-78
2023/07/24 11:26:20;;;;;;;6.43;4.75;;;23.50;99.90;;;;;;5064269;28;20562;-78
2023/07/24 11:28:52;;;;;;;7.18;5.20;;;23.60;99.90;;;;;;5049983;28;20518;-78
2023/07/24 11:31:21;;;;;;;7.43;4.55;;;23.70;99.90;;;;;;5047823;28;20205;-80
2023/07/24 11:33:50;;;;;;;6.43;5.00;;;23.80;99.90;;;;;;5047710;28;20221;-78
2023/07/24 11:36:18;;;;;;;7.70;5.55;;;23.80;99.90;;;;;;5029816;28;20229;-78
2023/07/24 11:38:46;;;;;;;7.18;5.50;;;23.80;99.90;;;;;;5047057;28;20197;-80
2023/07/24 11:41:14;;;;;;;7.97;5.00;;;23.70;99.90;;;;;;5039750;28;20429;-79
2023/07/24 11:43:50;;;;;;;7.63;5.65;;;23.70;99.90;;;;;;5046578;28;20555;-80
2023/07/24 11:46:25;;;;;;;8.50;5.53;;;23.70;99.90;;;;;;5048474;28;20211;-79
2023/07/24 11:48:53;;;;;;;8.45;5.88;;;23.70;99.90;;;;;;5047469;28;20712;-78
2023/07/24 11:51:20;;;;;;;8.82;5.20;;;23.60;99.90;;;;;;5045088;28;20232;-79
2023/07/24 11:53:47;;;;;;;8.30;5.05;;;23.70;99.90;;;;;;5050369;28;20218;-80
2023/07/24 11:56:15;;;;;;;7.70;5.22;;;23.70;99.90;;;;;;5057311;28;20193;-81
2023/07/24 11:58:43;;;;;;;9.23;5.15;;;23.80;99.90;;;;;;5042961;28;20193;-79
2023/07/24 12:01:13;;;;;;;8.07;5.32;;;23.90;99.90;;;;;;5046187;28;20210;-79
2023/07/24 12:03:40;;;;;;;7.80;4.80;;;23.90;99.90;;;;;;5037291;28;20212;-78
2023/07/24 12:06:17;;;;;;;7.30;4.70;;;24.00;99.90;;;;;;5057391;28;20196;-80
2023/07/24 12:08:44;;;;;;;6.55;4.97;;;23.90;99.90;;;;;;5048226;28;20859;-80
2023/07/24 12:11:20;;;;;;;7.97;5.30;;;23.90;99.90;;;;;;5046429;28;20928;-78
2023/07/24 12:13:47;;;;;;;8.05;4.85;;;23.90;99.90;;;;;;5049162;28;20212;-80
2023/07/24 12:16:17;;;;;;;6.53;4.70;;;23.90;99.90;;;;;;5047596;28;20211;-80
2023/07/24 12:18:45;;;;;;;6.80;5.25;;;24.00;99.90;;;;;;5029239;28;20198;-79
2023/07/24 12:21:11;;;;;;;7.72;4.53;;;23.90;99.90;;;;;;5044553;28;20216;-80
2023/07/24 12:23:39;;;;;;;6.80;4.05;;;24.00;99.90;;;;;;5038532;28;20260;-80
2023/07/24 12:26:07;;;;;;;8.98;4.95;;;24.10;99.90;;;;;;5039038;28;20208;-80
2023/07/24 12:28:33;;;;;;;7.65;5.20;;;24.10;99.90;;;;;;5055801;28;20236;-80
2023/07/24 12:31:00;;;;;;;6.38;5.05;;;24.20;99.90;;;;;;5038932;28;20889;-80
2023/07/24 12:33:27;;;;;;;8.93;5.75;;;24.20;99.90;;;;;;5045365;28;20197;-81
2023/07/24 12:35:54;;;;;;;7.78;5.20;;;24.20;99.90;;;;;;5046410;28;20197;-78
2023/07/24 12:38:21;;;;;;;5.93;4.50;;;24.30;99.90;;;;;;5045724;28;20669;-81
2023/07/24 12:40:47;;;;;;;7.45;5.35;;;24.40;99.90;;;;;;5047187;28;20283;-78
2023/07/24 12:43:15;;;;;;;6.75;5.20;;;24.30;99.90;;;;;;5046185;28;20224;-78
2023/07/24 12:45:42;;;;;;;6.97;5.55;;;24.40;99.90;;;;;;5054483;28;20688;-81
2023/07/24 12:48:08;;;;;;;7.30;5.43;;;24.50;99.90;;;;;;5047021;28;20668;-80
2023/07/24 12:50:35;;;;;;;7.97;5.60;;;24.30;99.90;;;;;;5047332;28;20279;-78